Time;durP1;ratioP1;P1;durP2;ratioP2;P2;SDS_P1;SDS_P2;PMS_P1;PMS_P2;Temp;Humidity;BMP_temperature;BMP_pressure;BME280_temperature;BME280_humidity;BME280_pressure;Samples;Min_cycle;Max_cycle;Signal;HPM_P1;HPM_P2
2021/07/27 00:01:45;;;;;;;15.85;11.13;;;;;;;23.22;57.53;98126.00;5086740;28;20138;-71
2021/07/27 00:04:10;;;;;;;17.55;10.45;;;;;;;23.24;57.61;98123.59;5088450;28;20139;-71
2021/07/27 00:06:36;;;;;;;14.43;10.55;;;;;;;23.25;57.71;98114.00;5090619;28;20020;-71
2021/07/27 00:09:01;;;;;;;14.63;10.70;;;;;;;23.26;57.64;98112.03;5092003;28;20094;-71
2021/07/27 00:11:27;;;;;;;15.45;10.43;;;;;;;23.27;57.80;98100.44;5092083;28;20054;-72
2021/07/27 00:13:52;;;;;;;14.43;10.45;;;;;;;23.28;57.62;98102.03;5090200;28;20106;-70
2021/07/27 00:16:18;;;;;;;14.70;10.30;;;;;;;23.29;57.54;98098.06;5091882;28;20016;-71
2021/07/27 00:18:43;;;;;;;17.67;11.23;;;;;;;23.25;57.61;98107.63;5090571;28;20031;-72
2021/07/27 00:21:08;;;;;;;15.68;11.23;;;;;;;23.26;57.60;98123.22;5091074;28;20016;-73
2021/07/27 00:23:34;;;;;;;16.42;11.32;;;;;;;23.19;57.50;98121.94;5090083;28;20034;-72
2021/07/27 00:26:10;;;;;;;14.70;10.55;;;;;;;23.16;57.52;98122.72;5091482;28;20104;-72
2021/07/27 00:28:35;;;;;;;13.15;10.35;;;;;;;23.11;57.59;98128.69;5087337;28;20098;-71
2021/07/27 00:31:01;;;;;;;15.65;11.10;;;;;;;23.07;57.63;98127.06;5089819;28;20480;-71
2021/07/27 00:33:26;;;;;;;15.15;10.68;;;;;;;23.04;58.16;98137.00;5088678;28;20028;-72
2021/07/27 00:35:51;;;;;;;14.65;9.95;;;;;;;23.00;58.18;98131.41;5088076;28;20042;-71
2021/07/27 00:38:21;;;;;;;13.98;10.38;;;;;;;22.97;58.12;98134.19;5088145;28;20031;-73
2021/07/27 00:40:47;;;;;;;17.92;12.00;;;;;;;22.96;58.27;98129.78;5089386;28;20034;-72
2021/07/27 00:43:16;;;;;;;14.88;10.38;;;;;;;22.94;58.54;98124.56;5090465;28;20028;-72
2021/07/27 00:45:42;;;;;;;20.48;11.35;;;;;;;22.93;58.73;98102.59;5091532;28;20497;-72
2021/07/27 00:48:08;;;;;;;15.18;10.73;;;;;;;22.92;58.91;98098.19;5089352;28;20036;-72
2021/07/27 00:50:34;;;;;;;17.00;11.13;;;;;;;22.94;59.03;98099.41;5092672;28;20024;-72
2021/07/27 00:53:03;;;;;;;16.88;12.25;;;;;;;22.89;59.14;98102.56;5094724;28;20020;-72
2021/07/27 00:55:29;;;;;;;17.40;11.90;;;;;;;22.84;59.17;98074.94;5089759;28;20044;-71
2021/07/27 00:57:55;;;;;;;20.05;11.38;;;;;;;22.73;59.40;98063.69;5090347;28;20059;-71
2021/07/27 01:00:21;;;;;;;13.93;10.93;;;;;;;22.70;59.47;98053.28;5089256;28;20366;-72
2021/07/27 01:02:47;;;;;;;16.85;11.23;;;;;;;22.62;59.69;98063.63;5091901;28;20239;-71
2021/07/27 01:05:13;;;;;;;15.25;11.10;;;;;;;22.55;59.92;98074.75;5092094;28;20143;-71
2021/07/27 01:07:40;;;;;;;15.07;10.15;;;;;;;22.49;60.07;98101.41;5089440;28;20020;-71
2021/07/27 01:10:07;;;;;;;15.73;11.05;;;;;;;22.42;60.08;98119.69;5092723;28;20119;-71
2021/07/27 01:12:33;;;;;;;15.43;10.95;;;;;;;22.39;60.23;98128.06;5091651;28;20024;-72
2021/07/27 01:14:59;;;;;;;17.23;10.88;;;;;;;22.34;60.13;98148.78;5090103;28;20484;-72
2021/07/27 01:17:24;;;;;;;15.63;11.40;;;;;;;22.27;60.31;98160.66;5089021;28;20273;-71
2021/07/27 01:43:48;;;;;;;15.70;11.00;;;;;;;21.83;62.03;98130.63;5089513;28;20470;-72
2021/07/27 01:46:15;;;;;;;14.30;10.15;;;;;;;21.79;62.07;98127.00;5088016;28;20466;-72
2021/07/27 01:48:41;;;;;;;12.38;10.15;;;;;;;21.78;62.14;98139.34;5086356;28;20074;-71
2021/07/27 01:51:07;;;;;;;15.70;10.85;;;;;;;21.71;62.25;98140.06;5088699;28;20035;-71
2021/07/27 01:53:43;;;;;;;14.60;11.48;;;;;;;21.70;62.48;98133.69;5090334;28;20032;-72
2021/07/27 01:56:09;;;;;;;14.30;10.75;;;;;;;21.73;62.38;98140.47;5093178;28;20111;-71
2021/07/27 01:58:34;;;;;;;13.65;11.02;;;;;;;21.71;62.74;98149.25;5093348;28;20119;-71
2021/07/27 02:01:00;;;;;;;14.52;11.48;;;;;;;21.71;62.78;98154.00;5091872;28;20021;-71
2021/07/27 02:03:26;;;;;;;13.32;10.80;;;;;;;21.70;62.86;98150.41;5091735;28;20044;-71
2021/07/27 02:05:51;;;;;;;14.90;10.82;;;;;;;21.72;62.81;98150.03;5092030;28;20112;-71
2021/07/27 02:08:16;;;;;;;14.48;11.45;;;;;;;21.74;62.95;98138.50;5091352;28;20027;-73
2021/07/27 02:10:46;;;;;;;17.17;11.82;;;;;;;21.80;63.24;98139.78;5093097;28;20093;-73
2021/07/27 02:13:25;;;;;;;14.30;11.02;;;;;;;21.83;63.24;98139.00;5092442;28;20477;-72
2021/07/27 02:15:51;;;;;;;15.10;12.07;;;;;;;21.85;63.23;98148.63;5094063;28;20032;-71
2021/07/27 02:18:16;;;;;;;16.63;11.20;;;;;;;21.84;63.32;98135.84;5092241;28;20416;-72
2021/07/27 02:20:47;;;;;;;13.90;11.05;;;;;;;21.86;63.38;98121.50;5094636;28;20474;-72
2021/07/27 02:23:13;;;;;;;18.58;11.88;;;;;;;21.91;63.41;98109.19;5091436;28;20032;-72
2021/07/27 02:25:39;;;;;;;19.15;12.73;;;;;;;21.90;63.64;98085.25;5093355;28;20054;-72
2021/07/27 02:28:06;;;;;;;17.65;12.70;;;;;;;21.91;63.50;98087.66;5093624;28;20016;-71
2021/07/27 02:30:36;;;;;;;16.92;11.90;;;;;;;21.89;63.63;98103.19;5093708;28;20509;-72
2021/07/27 02:33:02;;;;;;;15.43;11.75;;;;;;;21.84;63.72;98095.94;5093810;28;20031;-71
2021/07/27 02:35:28;;;;;;;16.92;11.82;;;;;;;21.80;63.59;98090.31;5093347;28;20034;-71
2021/07/27 02:37:54;;;;;;;17.38;12.38;;;;;;;21.76;63.88;98092.28;5091271;28;20020;-71
2021/07/27 02:40:19;;;;;;;17.42;12.73;;;;;;;21.73;63.70;98090.25;5094865;28;20439;-72
2021/07/27 02:42:44;;;;;;;18.75;13.05;;;;;;;21.69;63.82;98100.56;5093540;28;20408;-72
2021/07/27 02:45:11;;;;;;;20.55;13.65;;;;;;;21.64;63.98;98100.88;5090652;28;20016;-72
2021/07/27 02:47:40;;;;;;;17.88;12.70;;;;;;;21.62;63.84;98106.03;5095118;28;20020;-71
2021/07/27 02:50:07;;;;;;;18.88;13.80;;;;;;;21.59;64.01;98109.59;5093702;28;20028;-71
2021/07/27 02:52:33;;;;;;;19.05;14.13;;;;;;;21.58;64.65;98133.09;5096311;28;20734;-71
2021/07/27 02:54:58;;;;;;;21.65;13.32;;;;;;;21.53;64.45;98137.00;5093648;28;20032;-72
2021/07/27 02:57:23;;;;;;;20.35;14.38;;;;;;;21.49;64.56;98136.97;5089549;28;20544;-73
2021/07/27 02:59:49;;;;;;;18.38;13.75;;;;;;;21.47;64.77;98142.09;5092862;28;20077;-71
2021/07/27 03:02:23;;;;;;;20.98;13.48;;;;;;;21.44;64.45;98128.09;5094362;28;20032;-71
2021/07/27 03:04:48;;;;;;;16.42;12.85;;;;;;;21.38;64.78;98120.06;5090469;28;20489;-72
2021/07/27 03:07:19;;;;;;;21.33;13.75;;;;;;;21.37;65.10;98129.63;5091769;28;20066;-71
2021/07/27 03:10:17;;;;;;;19.17;14.02;;;;;;;21.37;65.03;98151.94;5091681;28;20652;-71
2021/07/27 03:12:30;;;;;;;18.70;14.00;;;;;;;21.37;65.55;98157.53;5092829;28;20028;-71
2021/07/27 03:14:58;;;;;;;18.88;14.32;;;;;;;21.33;65.33;98158.63;5093463;28;20032;-71
2021/07/27 03:17:25;;;;;;;20.15;14.40;;;;;;;21.27;65.20;98147.78;5091293;28;20047;-71
2021/07/27 03:19:51;;;;;;;18.92;13.48;;;;;;;21.24;65.50;98148.53;5092219;28;20031;-72
2021/07/27 03:22:18;;;;;;;18.55;13.52;;;;;;;21.21;65.65;98154.06;5093116;28;20036;-72
2021/07/27 03:24:43;;;;;;;19.13;14.43;;;;;;;21.18;65.85;98169.59;5091878;28;20028;-71
2021/07/27 03:27:08;;;;;;;18.02;13.93;;;;;;;21.15;65.73;98172.31;5083738;28;20039;-72
2021/07/27 03:29:34;;;;;;;20.90;14.10;;;;;;;21.15;65.99;98177.88;5087655;28;20028;-72
2021/07/27 03:31:59;;;;;;;19.67;14.48;;;;;;;21.09;66.15;98191.34;5091220;28;20115;-72
2021/07/27 03:34:25;;;;;;;23.10;15.35;;;;;;;21.04;66.45;98200.81;5092454;28;20016;-72
2021/07/27 03:36:50;;;;;;;20.20;14.70;;;;;;;20.97;67.30;98207.09;5089778;28;20039;-72
2021/07/27 03:39:16;;;;;;;21.52;15.85;;;;;;;20.92;67.65;98210.19;5088993;28;20032;-71
2021/07/27 03:41:42;;;;;;;20.75;15.73;;;;;;;20.85;67.46;98212.84;5092549;28;20114;-73
2021/07/27 03:44:07;;;;;;;17.33;13.02;;;;;;;20.80;68.02;98222.31;5090457;28;20393;-72
2021/07/27 03:46:33;;;;;;;17.48;12.73;;;;;;;20.71;68.04;98223.72;5090610;28;20077;-72
2021/07/27 03:48:58;;;;;;;19.83;14.88;;;;;;;20.58;68.47;98229.44;5091575;28;20032;-72
2021/07/27 03:51:23;;;;;;;15.07;12.18;;;;;;;20.49;69.43;98234.44;5090479;28;20073;-73
2021/07/27 03:53:49;;;;;;;18.48;11.93;;;;;;;20.38;69.05;98232.25;5093254;28;20085;-72
2021/07/27 03:56:14;;;;;;;15.52;12.38;;;;;;;20.33;68.56;98237.31;5091770;28;20461;-72
2021/07/27 03:58:43;;;;;;;16.38;12.05;;;;;;;20.32;68.40;98241.28;5091275;28;20036;-72
2021/07/27 04:01:08;;;;;;;16.05;12.73;;;;;;;20.29;68.31;98242.00;5089700;28;20036;-72
2021/07/27 04:03:33;;;;;;;15.50;12.32;;;;;;;20.32;68.32;98249.63;5091488;28;20101;-73
2021/07/27 04:05:59;;;;;;;15.63;12.52;;;;;;;20.34;68.60;98241.72;5090272;28;20028;-72
2021/07/27 04:08:24;;;;;;;20.95;13.45;;;;;;;20.36;68.31;98233.78;5089077;28;20098;-72
2021/07/27 04:10:50;;;;;;;15.38;12.15;;;;;;;20.44;68.21;98245.88;5091419;28;20726;-73
2021/07/27 04:13:16;;;;;;;18.63;12.18;;;;;;;20.46;68.10;98226.81;5090003;28;20028;-73
2021/07/27 04:15:42;;;;;;;14.77;9.23;;;;;;;20.45;68.30;98228.81;5092649;28;20381;-72
2021/07/27 04:18:07;;;;;;;13.82;11.50;;;;;;;20.40;68.00;98228.28;5091222;28;20050;-72
2021/07/27 04:20:33;;;;;;;16.90;11.65;;;;;;;20.40;68.14;98236.63;5091930;28;20107;-72
2021/07/27 04:23:00;;;;;;;17.85;11.20;;;;;;;20.40;67.85;98234.69;5087511;28;20100;-72
2021/07/27 04:25:28;;;;;;;14.77;11.27;;;;;;;20.40;67.89;98231.88;5091989;28;20028;-72
2021/07/27 04:27:53;;;;;;;16.35;11.30;;;;;;;20.38;67.90;98240.59;5088749;28;20028;-73
2021/07/27 04:30:19;;;;;;;13.40;9.85;;;;;;;20.45;67.73;98242.75;5089128;28;20024;-73
2021/07/27 04:32:44;;;;;;;14.15;9.25;;;;;;;20.47;67.73;98247.94;5090061;28;20028;-73
2021/07/27 04:35:10;;;;;;;13.40;10.75;;;;;;;20.44;67.46;98249.47;5091180;28;20062;-72
2021/07/27 04:37:35;;;;;;;15.35;10.57;;;;;;;20.47;67.57;98245.97;5091648;28;20131;-74
2021/07/27 04:40:00;;;;;;;13.57;10.10;;;;;;;20.52;67.56;98245.66;5092157;28;20028;-72
2021/07/27 04:42:26;;;;;;;13.85;10.27;;;;;;;20.56;67.82;98240.16;5090713;28;20089;-73
2021/07/27 04:44:51;;;;;;;12.23;9.68;;;;;;;20.60;67.69;98238.25;5091035;28;20036;-74
2021/07/27 04:47:16;;;;;;;13.57;10.52;;;;;;;20.63;67.56;98236.69;5091373;28;20020;-73
2021/07/27 04:49:45;;;;;;;14.32;10.13;;;;;;;20.68;67.53;98226.06;5090692;28;20454;-74
2021/07/27 04:52:12;;;;;;;12.60;9.40;;;;;;;20.78;67.75;98229.44;5090829;28;20492;-74
2021/07/27 04:54:50;;;;;;;13.45;10.57;;;;;;;20.88;68.04;98228.03;5092142;28;20032;-73
2021/07/27 04:57:15;;;;;;;12.80;9.80;;;;;;;20.96;67.70;98222.19;5088755;28;20036;-74
2021/07/27 04:59:41;;;;;;;16.45;10.05;;;;;;;21.06;67.93;98228.34;5091191;28;20028;-74
2021/07/27 05:02:07;;;;;;;13.38;9.73;;;;;;;21.14;67.45;98227.28;5087543;28;20787;-73
2021/07/27 05:04:35;;;;;;;13.32;10.40;;;;;;;21.23;67.62;98224.22;5090101;28;20043;-74
2021/07/27 05:07:03;;;;;;;12.85;10.07;;;;;;;21.31;67.58;98227.94;5089574;28;20035;-73
2021/07/27 05:09:28;;;;;;;13.50;10.65;;;;;;;21.36;67.53;98225.66;5085240;28;20036;-74
2021/07/27 05:11:57;;;;;;;14.65;9.95;;;;;;;21.42;67.47;98220.53;5089530;28;20032;-73
2021/07/27 05:14:23;;;;;;;13.90;10.30;;;;;;;21.47;67.29;98214.66;5091108;28;20031;-73
2021/07/27 05:16:48;;;;;;;14.43;10.43;;;;;;;21.53;67.34;98221.50;5084979;28;20032;-73
2021/07/27 05:19:13;;;;;;;16.25;10.48;;;;;;;21.58;67.32;98217.59;5089495;28;20032;-73
2021/07/27 05:21:39;;;;;;;14.82;10.98;;;;;;;21.59;67.20;98224.00;5084385;28;20098;-74
2021/07/27 05:24:04;;;;;;;15.40;10.77;;;;;;;21.62;67.11;98218.47;5091639;28;20024;-73
2021/07/27 05:26:30;;;;;;;14.13;10.52;;;;;;;21.67;67.11;98226.53;5091499;28;20118;-73
2021/07/27 05:28:55;;;;;;;12.27;10.07;;;;;;;21.72;67.12;98233.75;5089973;28;20031;-73
2021/07/27 05:31:26;;;;;;;16.60;10.98;;;;;;;21.76;66.91;98223.44;5089560;28;20024;-73
2021/07/27 05:33:52;;;;;;;16.88;10.57;;;;;;;21.68;66.84;98236.50;5089782;28;20020;-72
2021/07/27 05:36:18;;;;;;;15.55;11.27;;;;;;;21.70;67.15;98234.16;5090668;28;20031;-73
2021/07/27 05:38:43;;;;;;;13.68;10.60;;;;;;;21.73;67.12;98234.56;5091182;28;20477;-72
2021/07/27 05:41:08;;;;;;;14.98;11.13;;;;;;;21.75;66.91;98246.16;5089616;28;20073;-72
2021/07/27 05:43:34;;;;;;;17.10;11.88;;;;;;;21.70;66.83;98236.94;5091229;28;20067;-73
2021/07/27 05:46:02;;;;;;;13.27;10.55;;;;;;;21.68;66.76;98242.09;5091187;28;20066;-72
2021/07/27 05:48:27;;;;;;;14.90;9.88;;;;;;;21.70;67.00;98247.28;5087018;28;20028;-74
2021/07/27 05:50:52;;;;;;;14.68;10.57;;;;;;;21.73;67.11;98249.31;5090340;28;20027;-73
2021/07/27 05:53:18;;;;;;;15.93;11.63;;;;;;;21.74;66.80;98259.31;5087411;28;20029;-73
2021/07/27 05:55:43;;;;;;;18.40;12.48;;;;;;;21.77;66.80;98264.13;5087955;28;20043;-73
2021/07/27 05:58:08;;;;;;;16.15;12.15;;;;;;;21.80;67.01;98265.38;5091075;28;20016;-73
2021/07/27 06:00:36;;;;;;;15.80;11.10;;;;;;;21.83;66.85;98268.22;5090810;28;20085;-73
2021/07/27 06:03:03;;;;;;;15.05;11.82;;;;;;;21.82;66.86;98265.78;5090446;28;20040;-72
2021/07/27 06:05:29;;;;;;;15.23;11.10;;;;;;;21.86;67.25;98267.47;5090850;28;20519;-72
2021/07/27 06:07:54;;;;;;;15.30;10.30;;;;;;;21.89;67.01;98265.09;5090895;28;20024;-72
2021/07/27 06:10:19;;;;;;;17.60;11.32;;;;;;;21.92;67.55;98270.72;5090563;28;20031;-76
2021/07/27 06:12:45;;;;;;;14.10;10.68;;;;;;;21.92;66.85;98273.53;5090648;28;20020;-76
2021/07/27 06:15:10;;;;;;;15.73;10.70;;;;;;;21.98;66.83;98274.00;5090919;28;20048;-76
2021/07/27 06:17:36;;;;;;;13.20;9.95;;;;;;;22.06;66.82;98281.28;5090760;28;20040;-77
2021/07/27 06:20:01;;;;;;;12.50;9.98;;;;;;;22.17;66.99;98273.06;5083966;28;20020;-76
2021/07/27 06:22:27;;;;;;;15.20;10.07;;;;;;;22.24;66.91;98281.53;5089650;28;20024;-76
2021/07/27 06:24:54;;;;;;;13.75;9.80;;;;;;;22.33;66.65;98280.44;5090316;28;20039;-76
2021/07/27 06:27:19;;;;;;;13.30;10.18;;;;;;;22.43;66.76;98279.78;5091123;28;20028;-77
2021/07/27 06:29:45;;;;;;;16.27;11.52;;;;;;;22.50;66.64;98282.69;5085386;28;20466;-76
2021/07/27 06:32:10;;;;;;;12.27;9.43;;;;;;;22.56;66.42;98280.34;5089763;28;20412;-76
2021/07/27 06:34:35;;;;;;;12.98;9.70;;;;;;;22.61;66.29;98296.78;5087498;28;20028;-76
2021/07/27 06:37:01;;;;;;;12.20;10.05;;;;;;;22.60;66.04;98300.75;5087389;28;20119;-76
2021/07/27 06:39:28;;;;;;;13.60;9.88;;;;;;;22.63;65.92;98313.16;5088952;28;20531;-77
2021/07/27 06:41:55;;;;;;;13.23;9.45;;;;;;;22.61;65.93;98316.34;5092060;28;20028;-76
2021/07/27 06:44:20;;;;;;;10.93;8.73;;;;;;;22.62;65.94;98317.16;5093452;28;20031;-76
2021/07/27 06:46:46;;;;;;;11.32;8.30;;;;;;;22.62;65.98;98317.16;5092915;28;20686;-76
2021/07/27 06:49:11;;;;;;;15.90;10.65;;;;;;;22.60;65.98;98323.94;5092582;28;20123;-76
2021/07/27 06:51:37;;;;;;;13.65;9.95;;;;;;;22.60;66.12;98326.75;5092759;28;20388;-77
2021/07/27 06:54:02;;;;;;;12.73;10.50;;;;;;;22.55;66.21;98323.44;5093290;28;20038;-77
2021/07/27 06:56:27;;;;;;;15.98;10.82;;;;;;;22.48;66.17;98324.19;5093940;28;20032;-78
2021/07/27 06:58:53;;;;;;;14.63;9.95;;;;;;;22.45;66.27;98319.34;5093236;28;20058;-77
2021/07/27 07:01:18;;;;;;;12.05;9.38;;;;;;;22.44;66.35;98326.91;5091228;28;20112;-78
2021/07/27 07:03:43;;;;;;;13.05;10.45;;;;;;;22.39;65.99;98321.66;5092073;28;20050;-78
2021/07/27 07:06:11;;;;;;;12.32;9.95;;;;;;;22.41;66.06;98322.06;5093509;28;20025;-78
2021/07/27 07:08:37;;;;;;;14.90;10.25;;;;;;;22.46;66.13;98326.53;5090132;28;20028;-77
2021/07/27 07:11:04;;;;;;;12.57;8.98;;;;;;;22.45;66.49;98325.72;5092747;28;20112;-79
2021/07/27 07:13:31;;;;;;;15.20;9.70;;;;;;;22.43;66.16;98328.09;5093942;28;20192;-79
2021/07/27 07:15:57;;;;;;;15.05;10.73;;;;;;;22.41;66.20;98326.84;5092840;28;20031;-77
2021/07/27 07:18:23;;;;;;;12.95;10.32;;;;;;;22.38;66.00;98335.97;5092785;28;20453;-76
2021/07/27 07:20:51;;;;;;;15.13;10.35;;;;;;;22.39;66.14;98335.63;5091284;28;20036;-78
2021/07/27 07:23:17;;;;;;;12.63;10.38;;;;;;;22.38;66.13;98339.59;5092936;28;20374;-79
2021/07/27 07:25:43;;;;;;;11.18;8.93;;;;;;;22.37;66.10;98335.19;5093396;28;20024;-78
2021/07/27 07:28:12;;;;;;;12.27;9.55;;;;;;;22.35;66.43;98331.97;5092296;28;20059;-78
2021/07/27 07:30:38;;;;;;;13.02;10.60;;;;;;;22.34;66.24;98347.13;5092891;28;20481;-78
2021/07/27 07:33:04;;;;;;;15.18;11.63;;;;;;;22.32;66.23;98341.09;5092896;28;20032;-78
2021/07/27 07:35:29;;;;;;;13.77;10.60;;;;;;;22.35;66.27;98342.31;5091549;28;20047;-79
2021/07/27 07:37:55;;;;;;;14.82;10.45;;;;;;;22.34;66.53;98344.31;5092911;28;20024;-77
2021/07/27 07:40:21;;;;;;;14.82;10.88;;;;;;;22.33;66.51;98345.50;5090273;28;20085;-81
2021/07/27 07:42:46;;;;;;;14.57;10.27;;;;;;;22.35;66.69;98351.53;5091297;28;20040;-79
2021/07/27 07:45:12;;;;;;;12.82;10.02;;;;;;;22.41;66.92;98357.56;5090683;28;20042;-78
2021/07/27 07:47:37;;;;;;;21.35;14.40;;;;;;;22.39;66.89;98357.97;5092855;28;20088;-80
2021/07/27 07:50:03;;;;;;;16.80;13.07;;;;;;;22.45;66.61;98350.09;5092190;28;20059;-79
2021/07/27 07:52:29;;;;;;;17.00;11.73;;;;;;;22.50;66.59;98352.56;5091997;28;20385;-80
2021/07/27 07:54:54;;;;;;;17.50;11.27;;;;;;;22.59;66.64;98346.66;5090504;28;20024;-77
2021/07/27 07:57:19;;;;;;;19.10;12.15;;;;;;;22.66;66.63;98357.13;5092383;28;20027;-79
2021/07/27 07:59:45;;;;;;;15.85;12.05;;;;;;;22.66;66.30;98346.75;5091580;28;20025;-78
2021/07/27 08:02:10;;;;;;;17.45;11.30;;;;;;;22.71;66.30;98346.41;5090315;28;20107;-78
2021/07/27 08:04:36;;;;;;;20.38;12.30;;;;;;;22.74;66.08;98351.25;5092019;28;20129;-78
2021/07/27 08:07:01;;;;;;;19.17;12.23;;;;;;;22.78;65.93;98354.09;5091100;28;20039;-79
2021/07/27 08:09:27;;;;;;;21.48;12.80;;;;;;;22.85;65.79;98356.16;5091228;28;20031;-77
2021/07/27 08:11:52;;;;;;;16.98;13.00;;;;;;;22.92;65.77;98359.03;5091456;28;20044;-78
2021/07/27 08:14:19;;;;;;;18.77;12.95;;;;;;;23.00;65.73;98371.91;5094077;28;20081;-78
2021/07/27 08:16:44;;;;;;;17.75;11.38;;;;;;;23.14;65.84;98378.88;5091891;28;20035;-82
2021/07/27 08:19:09;;;;;;;19.13;13.00;;;;;;;23.22;65.53;98383.38;5088168;28;20020;-81
2021/07/27 08:21:35;;;;;;;19.67;11.93;;;;;;;23.30;65.38;98384.25;5090257;28;20454;-79
2021/07/27 08:24:00;;;;;;;17.33;11.73;;;;;;;23.38;65.22;98388.75;5089625;28;20024;-79
2021/07/27 08:26:27;;;;;;;19.17;12.05;;;;;;;23.47;64.98;98391.22;5090339;28;20277;-81
2021/07/27 08:28:52;;;;;;;18.35;11.75;;;;;;;23.54;64.85;98380.09;5089852;28;20036;-77
2021/07/27 08:31:18;;;;;;;18.00;11.60;;;;;;;23.63;64.62;98386.19;5088737;28;20082;-79
2021/07/27 08:33:43;;;;;;;17.20;11.18;;;;;;;23.70;63.95;98379.84;5091047;28;20054;-77
2021/07/27 08:36:09;;;;;;;17.13;11.95;;;;;;;23.81;64.23;98381.94;5090589;28;20302;-78
2021/07/27 08:38:35;;;;;;;13.60;10.38;;;;;;;23.86;63.77;98382.34;5090423;28;20032;-77
2021/07/27 08:41:02;;;;;;;16.40;10.63;;;;;;;23.91;63.41;98382.00;5091069;28;20055;-78
2021/07/27 08:43:28;;;;;;;16.75;11.02;;;;;;;23.97;62.80;98376.84;5087932;28;20498;-77
2021/07/27 08:45:54;;;;;;;18.38;11.10;;;;;;;24.05;62.87;98378.53;5090750;28;20036;-78
2021/07/27 08:48:23;;;;;;;16.00;10.63;;;;;;;24.14;62.67;98380.97;5085829;28;20122;-81
2021/07/27 08:50:50;;;;;;;13.90;10.60;;;;;;;24.22;61.64;98382.66;5088337;28;20493;-79
2021/07/27 08:53:15;;;;;;;14.98;11.05;;;;;;;24.26;62.13;98381.88;5088695;28;20099;-80
2021/07/27 08:55:41;;;;;;;14.55;10.63;;;;;;;24.30;62.19;98383.47;5088999;28;20111;-81
2021/07/27 08:58:06;;;;;;;14.73;10.70;;;;;;;24.33;61.42;98384.72;5094406;28;20457;-81
2021/07/27 09:00:32;;;;;;;17.35;11.13;;;;;;;24.32;61.46;98389.50;5089412;28;20024;-78
2021/07/27 09:03:18;;;;;;;14.13;10.60;;;;;;;24.36;61.44;98386.75;5088692;28;20035;-76
2021/07/27 09:05:44;;;;;;;15.65;10.88;;;;;;;24.45;61.33;98380.78;5089734;28;20508;-79
2021/07/27 09:08:11;;;;;;;13.57;9.88;;;;;;;24.50;60.97;98386.81;5087436;28;20031;-81
2021/07/27 09:10:40;;;;;;;12.68;9.68;;;;;;;24.56;61.15;98386.44;5089152;28;20031;-80
2021/07/27 09:13:08;;;;;;;13.55;10.25;;;;;;;24.61;61.04;98386.06;5088432;28;20073;-82
2021/07/27 09:15:45;;;;;;;14.10;10.57;;;;;;;24.67;61.17;98393.69;5090105;28;20024;-78
2021/07/27 09:18:15;;;;;;;10.30;8.10;;;;;;;24.71;59.64;98388.13;5088192;28;20051;-81
2021/07/27 09:20:43;;;;;;;10.05;8.35;;;;;;;24.73;60.94;98388.56;5089856;28;20107;-84
2021/07/27 09:23:13;;;;;;;9.95;8.85;;;;;;;24.79;60.62;98392.59;5088446;28;20572;-81
2021/07/27 09:25:42;;;;;;;;;;;;;;;24.86;60.06;98394.63;5090188;28;20038;-80
2021/07/27 09:28:08;;;;;;;9.15;7.78;;;;;;;24.90;60.03;98397.44;5090058;28;19916;-78
2021/07/27 09:30:39;;;;;;;11.48;7.88;;;;;;;24.92;59.80;98403.44;5089632;28;20478;-77
2021/07/27 09:33:05;;;;;;;10.98;8.43;;;;;;;24.97;59.68;98391.84;5089619;28;20077;-78
2021/07/27 09:35:32;;;;;;;9.73;8.00;;;;;;;25.06;60.11;98397.13;5089156;28;20024;-81
2021/07/27 09:38:00;;;;;;;11.85;8.60;;;;;;;25.13;59.61;98394.31;5089227;28;20032;-80
2021/07/27 09:40:26;;;;;;;8.25;7.40;;;;;;;25.15;58.44;98391.91;5089946;28;20028;-78
2021/07/27 09:42:53;;;;;;;9.25;8.05;;;;;;;25.17;59.15;98397.13;5090779;28;20104;-81
2021/07/27 09:45:18;;;;;;;11.25;8.18;;;;;;;25.21;59.10;98389.53;5091359;28;20035;-80
2021/07/27 09:47:48;;;;;;;10.00;8.52;;;;;;;25.24;58.64;98395.16;5090461;28;20031;-81
2021/07/27 09:50:15;;;;;;;10.15;8.07;;;;;;;25.30;59.06;98395.53;5090320;28;20031;-80
2021/07/27 09:52:43;;;;;;;9.57;7.85;;;;;;;25.34;58.77;98396.38;5088260;28;20034;-81
2021/07/27 09:55:10;;;;;;;11.30;8.37;;;;;;;25.42;58.54;98397.19;5090917;28;20073;-74
2021/07/27 09:57:35;;;;;;;9.27;7.53;;;;;;;25.46;58.07;98397.22;5088723;28;20278;-78
2021/07/27 10:00:01;;;;;;;9.32;6.82;;;;;;;25.51;57.81;98400.44;5083453;28;20051;-80
2021/07/27 10:02:27;;;;;;;9.80;6.68;;;;;;;25.56;57.89;98400.03;5089354;28;20038;-79
2021/07/27 10:04:55;;;;;;;9.95;6.55;;;;;;;25.61;56.63;98393.25;5087625;28;20044;-78
2021/07/27 10:07:29;;;;;;;11.43;6.72;;;;;;;25.69;56.19;98399.66;5089206;28;20557;-79
2021/07/27 10:10:07;;;;;;;11.77;7.45;;;;;;;25.73;55.64;98397.66;5090849;28;20534;-78
2021/07/27 10:12:34;;;;;;;9.90;7.07;;;;;;;25.80;55.87;98403.28;5090890;28;20027;-78
2021/07/27 10:15:20;;;;;;;9.45;6.72;;;;;;;25.90;56.24;98407.28;5084842;28;20024;-80
2021/07/27 10:17:50;;;;;;;9.10;6.50;;;;;;;25.94;55.39;98398.84;5092411;28;20507;-82
2021/07/27 10:20:24;;;;;;;7.88;4.82;;;;;;;25.98;55.39;98399.66;5093596;28;20024;-82
2021/07/27 10:22:49;;;;;;;5.65;4.90;;;;;;;26.01;54.65;98390.44;5089694;28;20380;-82
2021/07/27 10:25:16;;;;;;;5.95;5.03;;;;;;;26.04;53.27;98386.03;5093455;28;20073;-80
2021/07/27 10:27:50;;;;;;;6.85;5.43;;;;;;;26.10;53.42;98379.59;5092870;28;20056;-81
2021/07/27 10:30:17;;;;;;;9.15;5.53;;;;;;;26.12;52.66;98390.41;5092686;28;20122;-82
2021/07/27 10:32:53;;;;;;;5.22;4.30;;;;;;;26.15;53.38;98398.88;5091538;28;20064;-81
2021/07/27 10:35:29;;;;;;;5.80;4.80;;;;;;;26.18;52.99;98400.06;5093311;28;20020;-82
2021/07/27 10:38:06;;;;;;;6.50;4.45;;;;;;;26.25;52.89;98394.44;5090667;28;20032;-80
2021/07/27 10:40:31;;;;;;;4.60;3.90;;;;;;;26.30;52.81;98394.03;5093002;28;20115;-82
2021/07/27 10:42:57;;;;;;;4.95;4.03;;;;;;;26.36;52.38;98390.81;5091885;28;20123;-80
2021/07/27 10:45:23;;;;;;;5.63;4.38;;;;;;;26.43;52.61;98383.16;5092114;28;20115;-82
2021/07/27 10:47:50;;;;;;;6.03;4.75;;;;;;;26.51;52.59;98378.31;5091777;28;20122;-83
2021/07/27 10:50:16;;;;;;;10.80;5.43;;;;;;;26.62;52.62;98377.47;5092441;28;20386;-76
2021/07/27 10:52:43;;;;;;;7.72;5.65;;;;;;;26.71;52.07;98373.00;5083914;28;20031;-77
2021/07/27 10:55:10;;;;;;;7.93;4.88;;;;;;;26.77;52.02;98372.59;5094460;28;20032;-81
2021/07/27 10:57:38;;;;;;;7.95;5.85;;;;;;;26.85;52.45;98374.22;5092175;28;20031;-77
2021/07/27 11:00:04;;;;;;;8.95;6.00;;;;;;;26.93;51.87;98372.97;5089748;28;20034;-76
2021/07/27 11:02:30;;;;;;;12.27;5.88;;;;;;;26.99;52.16;98374.16;5093049;28;20024;-76
2021/07/27 11:04:55;;;;;;;8.82;5.82;;;;;;;27.13;52.50;98384.53;5095469;28;20405;-76
2021/07/27 11:07:20;;;;;;;8.50;5.13;;;;;;;27.25;51.95;98388.88;5092675;28;20054;-75
2021/07/27 11:09:49;;;;;;;8.93;5.90;;;;;;;27.40;51.99;98388.81;5092002;28;20702;-75
2021/07/27 11:12:24;;;;;;;6.45;5.65;;;;;;;27.49;51.49;98389.19;5090176;28;20035;-75
2021/07/27 11:14:49;;;;;;;10.88;5.38;;;;;;;27.54;51.19;98391.53;5091687;28;20035;-76
2021/07/27 11:17:23;;;;;;;8.80;5.50;;;;;;;27.58;51.05;98381.03;5091592;28;20032;-76
2021/07/27 11:19:49;;;;;;;10.35;5.78;;;;;;;27.61;50.11;98385.06;5122179;27;20537;-76
2021/07/27 11:22:15;;;;;;;8.88;5.68;;;;;;;27.62;50.83;98381.81;5091136;28;20032;-76
2021/07/27 11:24:40;;;;;;;9.68;6.15;;;;;;;27.69;51.04;98369.72;5089789;28;20027;-76
2021/07/27 11:27:12;;;;;;;6.97;5.47;;;;;;;27.78;51.10;98380.50;5090815;28;20042;-77
2021/07/27 11:29:37;;;;;;;8.48;6.43;;;;;;;27.82;50.75;98372.81;5091576;28;20012;-77
2021/07/27 11:32:12;;;;;;;7.82;6.07;;;;;;;27.91;51.11;98370.34;5090672;28;20544;-75
2021/07/27 11:34:37;;;;;;;10.07;6.20;;;;;;;28.02;51.11;98369.41;5089107;28;20024;-76
2021/07/27 11:37:02;;;;;;;6.82;5.80;;;;;;;28.06;50.41;98364.56;5084853;28;20032;-75
2021/07/27 11:39:38;;;;;;;8.65;6.10;;;;;;;28.18;50.30;98360.44;5091088;28;20433;-74
2021/07/27 11:42:04;;;;;;;9.73;6.30;;;;;;;28.24;50.48;98372.84;5088373;28;20073;-74
2021/07/27 11:44:30;;;;;;;12.27;7.35;;;;;;;28.29;49.57;98371.63;5089453;28;20044;-80